LAKE NATOMA (NIMBUS DAM) (NAT)

Elevation: 132' · AMERICAN R basin · Operator: US Bureau of Reclamation

Provisional data, subject to change.
Query executed Wednesday at 14:20:48   clock

Select a sensor type for a plot of data.
Note: Reservoir Flows are daily averages.

Earlier

Date RES ELE    STORAGE    RES CHG    OUTFLOW    INFLOW    SPILL    DIS PWR   
 FEET   AF   AF   CFS   CFS   CFS   CFS  
02/03/2015 122.95 7769 457 987 1218 0 887
02/04/2015 122.24 7449 -320 989 829 0 889
02/05/2015 121.87 7286 -163 997 915 0 897
02/06/2015 121.73 7228 -58 960 932 0 880
02/07/2015 121.58 7165 -63 931 900 0 861
02/08/2015 122.51 7571 406 919 1124 0 849
02/09/2015 122.89 7742 171 927 1014 0 857
02/10/2015 122.02 7350 -392 932 734 0 862
02/11/2015 122.05 7364 14 904 911 49 785
02/12/2015 121.96 7324 -40 928 908 0 858
02/13/2015 122.60 7611 287 953 1099 0 848
02/14/2015 122.32 7485 -126 937 874 0 832
02/15/2015 122.02 7350 -135 936 869 0 831
02/16/2015 122.26 7458 108 939 994 0 834
02/17/2015 123.35 7956 498 945 1197 0 840
02/18/2015 122.84 7719 -237 913 795 0 808
02/19/2015 123.04 7810 91 863 910 0 758
02/20/2015 122.98 7782 -28 830 817 0 757
02/21/2015 122.99 7787 5 852 859 0 771
02/22/2015 122.40 7521 -266 861 729 0 771
02/23/2015 121.53 7144 -377 850 661 0 760
02/24/2015 121.76 7240 96 834 883 29 712
02/25/2015 121.55 7152 -88 847 804 0 748
02/26/2015 121.27 7034 -118 873 815 0 774
02/27/2015 121.45 7110 76 872 911 0 773
02/28/2015 121.41 7093 -17 871 863 0 772
03/01/2015 121.15 6984 -109 871 817 0 772
03/02/2015 121.43 7102 118 875 935 0 776
03/03/2015 122.15 7409 307 797 953 0 698
03/04/2015 -- -- -- -- -- -- --

Later | Latest

Warning! This data is preliminary and subject to revision.

Show NAT Map | Plot NAT Data | 1 Month NAT Data | Real-Time NAT Data | NAT Info